Time;durP1;ratioP1;P1;durP2;ratioP2;P2;SDS_P1;SDS_P2;PMS_P1;PMS_P2;Temp;Humidity;BMP_temperature;BMP_pressure;BME280_temperature;BME280_humidity;BME280_pressure;Samples;Min_cycle;Max_cycle;Signal;HPM_P1;HPM_P2
2021/01/10 00:24:53;;;;;;;;;;;2.50;93.50;;;;;;6091903;23;19926;31
2021/01/10 00:27:19;;;;;;;;;;;2.60;93.00;;;;;;6084138;22;19905;-92
2021/01/10 03:38:52;;;;;;;;;;;-0.20;97.70;;;;;;6158976;22;19905;-88
2021/01/10 03:51:39;;;;;;;;;;;-0.30;97.50;;;;;;6209106;23;19910;-88
2021/01/10 03:56:40;;;;;;;;;;;-0.40;97.80;;;;;;6205138;22;19947;-92
2021/01/10 03:59:06;;;;;;;;;;;-0.40;97.80;;;;;;6184697;23;19899;-91
2021/01/10 04:01:32;;;;;;;;;;;-0.40;98.10;;;;;;6175126;22;19905;-76
2021/01/10 04:06:34;;;;;;;;;;;-0.40;98.30;;;;;;6193216;22;19911;-90
2021/01/10 04:16:39;;;;;;;;;;;-0.50;98.20;;;;;;6306658;22;19903;-94
2021/01/10 04:19:04;;;;;;;;;;;-0.50;98.20;;;;;;6279179;22;19906;-91
2021/01/10 04:21:36;;;;;;;;;;;-0.60;98.30;;;;;;6290877;22;19903;-90
2021/01/10 04:24:02;;;;;;;;;;;-0.60;98.50;;;;;;6310487;22;19899;-91
2021/01/10 04:26:29;;;;;;;;;;;-0.60;98.40;;;;;;6309324;22;19922;-90
2021/01/10 04:28:55;;;;;;;;;;;-0.50;98.50;;;;;;6308479;22;19907;-88
2021/01/10 04:31:21;;;;;;;;;;;-0.60;98.40;;;;;;6309638;22;19914;-91
2021/01/10 04:33:46;;;;;;;;;;;-0.60;98.40;;;;;;6309320;22;19930;-92
2021/01/10 04:36:12;;;;;;;;;;;-0.50;98.50;;;;;;6307609;22;19939;-92
2021/01/10 04:38:38;;;;;;;;;;;-0.60;98.50;;;;;;6308919;22;19895;-89
2021/01/10 04:41:04;;;;;;;;;;;-0.60;98.50;;;;;;6303120;22;19964;-90
2021/01/10 04:43:30;;;;;;;;;;;-0.60;98.60;;;;;;6273606;22;19903;-89
2021/01/10 04:45:56;;;;;;;;;;;-0.60;98.50;;;;;;6300919;22;19982;-89
2021/01/10 04:48:22;;;;;;;;;;;-0.60;98.60;;;;;;6278696;22;19962;-92
2021/01/10 04:50:48;;;;;;;;;;;-0.60;98.70;;;;;;6279385;22;19892;-94
2021/01/10 04:53:18;;;;;;;;;;;-0.70;98.50;;;;;;6277175;22;19907;-90
2021/01/10 04:55:49;;;;;;;;;;;-0.70;98.50;;;;;;6276289;22;19905;-88
2021/01/10 04:58:14;;;;;;;;;;;-0.80;98.60;;;;;;6303361;22;19914;-91
2021/01/10 05:00:41;;;;;;;;;;;-0.70;98.90;;;;;;6273914;22;19903;-87
2021/01/10 05:03:16;;;;;;;;;;;-0.70;98.70;;;;;;6277375;22;19898;-91
2021/01/10 05:05:42;;;;;;;;;;;-0.70;98.70;;;;;;6298048;22;19919;-87
2021/01/10 05:08:08;;;;;;;;;;;-0.80;98.60;;;;;;6265645;22;19923;-92
2021/01/10 05:10:37;;;;;;;;;;;-0.70;98.60;;;;;;6289086;22;19914;-92
2021/01/10 05:13:03;;;;;;;;;;;-0.70;98.60;;;;;;6292984;22;19913;-89
2021/01/10 05:15:28;;;;;;;;;;;-0.70;98.70;;;;;;6272725;22;19908;-91
2021/01/10 05:17:58;;;;;;;;;;;-0.80;98.50;;;;;;6273233;22;19903;-91
2021/01/10 05:20:24;;;;;;;;;;;-0.80;98.70;;;;;;6271176;22;19910;-94
2021/01/10 05:22:51;;;;;;;;;;;-0.80;98.80;;;;;;6300398;22;19910;-90
2021/01/10 05:25:19;;;;;;;;;;;-0.80;99.00;;;;;;6270936;22;19915;-88
2021/01/10 05:27:57;;;;;;;;;;;-0.70;98.80;;;;;;6283854;22;19935;-93
2021/01/10 05:30:30;;;;;;;;;;;-0.90;98.80;;;;;;6301451;22;19908;-91
2021/01/10 05:33:02;;;;;;;;;;;-0.80;98.60;;;;;;6302070;22;19903;-91
2021/01/10 05:35:29;;;;;;;;;;;-0.90;98.60;;;;;;6299617;22;19907;-91
2021/01/10 05:38:00;;;;;;;;;;;-0.90;98.60;;;;;;6290878;22;19904;-92
2021/01/10 05:40:30;;;;;;;;;;;-0.80;98.70;;;;;;6268743;22;19903;-90
2021/01/10 05:43:05;;;;;;;;;;;-0.90;98.70;;;;;;6301050;22;19915;-89
2021/01/10 05:45:32;;;;;;;;;;;-0.80;98.60;;;;;;6268286;22;19911;-91
2021/01/10 05:48:10;;;;;;;;;;;-0.90;98.60;;;;;;6295916;22;19947;-93
2021/01/10 05:50:40;;;;;;;;;;;-0.80;98.70;;;;;;6269485;22;19982;-92
2021/01/10 05:53:16;;;;;;;;;;;-0.80;99.00;;;;;;6271032;22;19950;-91
2021/01/10 05:55:59;;;;;;;;;;;-0.90;99.20;;;;;;6296266;22;19908;-93
2021/01/10 05:58:30;;;;;;;;;;;-0.80;98.90;;;;;;6272667;22;19903;-90
2021/01/10 06:00:59;;;;;;;;;;;-0.90;98.80;;;;;;6264772;22;19903;-93
2021/01/10 06:03:32;;;;;;;;;;;-0.90;98.90;;;;;;6296306;22;19910;-92
2021/01/10 06:05:59;;;;;;;;;;;-0.80;99.00;;;;;;6266082;22;19911;-93
2021/01/10 06:08:30;;;;;;;;;;;-0.80;99.00;;;;;;6296078;22;19910;-93
2021/01/10 06:11:17;;;;;;;;;;;-0.90;98.80;;;;;;6288871;22;19899;-88
2021/01/10 06:13:52;;;;;;;;;;;-0.90;98.50;;;;;;6299461;22;19922;-90
2021/01/10 06:16:19;;;;;;;;;;;-0.90;98.90;;;;;;6270374;22;19950;-91
2021/01/10 06:18:50;;;;;;;;;;;-0.90;98.80;;;;;;6299693;22;19923;-93
2021/01/10 06:21:18;;;;;;;;;;;-0.90;98.70;;;;;;6241989;22;19967;-91
2021/01/10 06:23:47;;;;;;;;;;;-0.90;98.90;;;;;;6261723;22;19903;-92
2021/01/10 06:26:16;;;;;;;;;;;-0.90;98.90;;;;;;6261237;22;19918;-92
2021/01/10 06:28:47;;;;;;;;;;;-0.90;98.90;;;;;;6264621;22;19903;-90
2021/01/10 06:31:15;;;;;;;;;;;-0.90;98.80;;;;;;6259662;22;19903;-92
2021/01/10 06:33:43;;;;;;;;;;;-0.90;98.80;;;;;;6260118;22;19910;-90
2021/01/10 06:36:11;;;;;;;;;;;-0.80;98.80;;;;;;6261589;22;19903;-88
2021/01/10 06:38:37;;;;;;;;;;;-0.80;98.90;;;;;;6263333;22;19904;-92
2021/01/10 06:41:06;;;;;;;;;;;-0.90;99.00;;;;;;6264178;22;19910;-90
2021/01/10 06:43:34;;;;;;;;;;;-0.90;99.10;;;;;;6294935;22;19907;-90
2021/01/10 06:46:07;;;;;;;;;;;-0.90;99.20;;;;;;6300959;22;19911;-89
2021/01/10 06:48:33;;;;;;;;;;;-0.90;99.20;;;;;;6275997;22;19892;-91
2021/01/10 06:51:02;;;;;;;;;;;-0.90;99.20;;;;;;6294106;22;19903;-91
2021/01/10 06:53:30;;;;;;;;;;;-0.90;99.20;;;;;;6296477;22;19974;-91
2021/01/10 06:55:55;;;;;;;;;;;-0.90;99.20;;;;;;6294543;22;19926;-89
2021/01/10 06:58:21;;;;;;;;;;;-0.90;99.00;;;;;;6267429;22;19909;-90
2021/01/10 07:00:53;;;;;;;;;;;-0.90;98.80;;;;;;6288450;22;19907;-91
2021/01/10 07:03:19;;;;;;;;;;;-0.90;98.90;;;;;;6259437;22;19903;-91
2021/01/10 07:06:11;;;;;;;;;;;-0.90;99.00;;;;;;6265813;22;19917;-91
2021/01/10 07:08:36;;;;;;;;;;;-0.90;98.90;;;;;;6264853;22;19899;-89
2021/01/10 07:11:35;;;;;;;;;;;-0.90;99.00;;;;;;6266068;22;19910;-90
2021/01/10 07:14:00;;;;;;;;;;;-1.00;99.20;;;;;;6224180;22;19895;-92
2021/01/10 07:16:26;;;;;;;;;;;-1.00;99.20;;;;;;6276929;22;19934;-88
2021/01/10 07:18:56;;;;;;;;;;;-0.90;99.30;;;;;;6277428;22;19912;-90
2021/01/10 07:21:31;;;;;;;;;;;-0.90;99.20;;;;;;6273545;22;19911;-89
2021/01/10 07:24:26;;;;;;;;;;;-0.90;99.10;;;;;;6275193;22;19903;-89
2021/01/10 07:26:51;;;;;;;;;;;-1.00;99.00;;;;;;6278742;22;19925;-90
2021/01/10 07:29:27;;;;;;;;;;;-1.00;99.00;;;;;;6278709;22;19895;-90
2021/01/10 07:31:53;;;;;;;;;;;-1.00;99.00;;;;;;6265281;22;19938;-89
2021/01/10 07:34:19;;;;;;;;;;;-1.00;99.10;;;;;;6261034;22;19903;-90
2021/01/10 07:36:49;;;;;;;;;;;-1.00;99.10;;;;;;6258691;22;20376;-90
2021/01/10 07:39:16;;;;;;;;;;;-1.00;99.10;;;;;;6267107;22;19910;-89
2021/01/10 07:41:42;;;;;;;;;;;-1.00;99.30;;;;;;6293294;22;19904;-88
2021/01/10 07:44:08;;;;;;;;;;;-1.00;99.30;;;;;;6265767;22;19923;-89
2021/01/10 07:46:52;;;;;;;;;;;-1.00;99.30;;;;;;6256781;22;19963;-92
2021/01/10 07:49:19;;;;;;;;;;;-1.00;99.10;;;;;;6257994;22;19926;-92
2021/01/10 07:51:44;;;;;;;;;;;-1.00;99.00;;;;;;6259510;22;19903;-88
2021/01/10 07:54:10;;;;;;;;;;;-1.00;99.00;;;;;;6266460;22;19903;-91
2021/01/10 07:56:35;;;;;;;;;;;-1.00;99.10;;;;;;6268370;22;19903;-93
2021/01/10 07:59:17;;;;;;;;;;;-1.00;99.10;;;;;;6261589;22;19903;-89
2021/01/10 08:01:51;;;;;;;;;;;-1.00;99.10;;;;;;6259926;22;19918;-91
2021/01/10 08:04:30;;;;;;;;;;;-1.00;99.10;;;;;;6260683;22;19904;-88
2021/01/10 08:06:57;;;;;;;;;;;-1.00;99.00;;;;;;6258699;22;19915;-88
2021/01/10 08:09:28;;;;;;;;;;;-1.00;99.10;;;;;;6267290;22;19961;-88
2021/01/10 08:11:53;;;;;;;;;;;-1.00;99.20;;;;;;6244470;22;19908;-92
2021/01/10 08:14:22;;;;;;;;;;;-1.00;99.30;;;;;;6246065;22;19919;-90
2021/01/10 08:16:47;;;;;;;;;;;-1.10;99.30;;;;;;6301097;22;19891;-90
2021/01/10 08:19:13;;;;;;;;;;;-1.00;99.40;;;;;;6275970;22;19918;-91
2021/01/10 08:21:44;;;;;;;;;;;-0.90;99.40;;;;;;6275211;22;19935;-84
2021/01/10 08:24:15;;;;;;;;;;;-0.90;99.40;;;;;;6255593;22;19929;-86
2021/01/10 08:26:42;;;;;;;;;;;-0.90;99.30;;;;;;6274643;22;19937;-88
2021/01/10 08:29:08;;;;;;;;;;;-0.90;99.20;;;;;;6277066;22;19927;-90
2021/01/10 08:31:35;;;;;;;;;;;-0.90;99.30;;;;;;6298765;22;19907;-87
2021/01/10 08:36:37;;;;;;;;;;;-0.80;99.10;;;;;;6276362;22;19924;-90
2021/01/10 08:39:04;;;;;;;;;;;-0.80;99.20;;;;;;6274336;22;19903;-91
2021/01/10 08:41:33;;;;;;;;;;;-0.80;99.30;;;;;;6301253;22;19914;-88
2021/01/10 08:43:58;;;;;;;;;;;-0.70;99.20;;;;;;6236546;22;19943;-86
2021/01/10 08:51:49;;;;;;;;;;;-0.70;99.00;;;;;;6275021;22;19941;-91
2021/01/10 09:04:31;;;;;;;;;;;-0.60;98.80;;;;;;6178559;23;19972;-93
2021/01/10 09:07:01;;;;;;;;;;;-0.60;98.90;;;;;;6152194;23;19957;-89
2021/01/10 09:09:32;;;;;;;;;;;-0.50;98.90;;;;;;6178699;23;19964;-92
2021/01/10 09:12:18;;;;;;;;;;;-0.40;99.00;;;;;;6178941;23;19909;-91
2021/01/10 09:14:53;;;;;;;;;;;-0.30;99.00;;;;;;6177559;23;19907;-93
2021/01/10 09:17:21;;;;;;;;;;;-0.30;99.00;;;;;;6179574;23;19893;-91
2021/01/10 09:19:51;;;;;;;;;;;-0.20;98.90;;;;;;6154630;23;19915;-93
2021/01/10 11:51:17;;;;;;;;;;;4.40;94.30;;;;;;6286606;22;19915;-82
2021/01/10 12:06:40;;;;;;;;;;;5.90;91.00;;;;;;6299819;22;19903;-82
2021/01/10 12:09:09;;;;;;;;;;;6.20;90.30;;;;;;6279186;22;19914;-82
2021/01/10 12:17:27;;;;;;;;;;;6.50;88.90;;;;;;6286301;22;19925;-83
2021/01/10 12:19:53;;;;;;;;;;;6.50;88.90;;;;;;6279165;22;19892;-82
2021/01/10 12:30:06;;;;;;;;;;;6.70;89.50;;;;;;6301209;22;19915;-83
2021/01/10 12:32:35;;;;;;;;;;;6.90;87.70;;;;;;6279107;22;19891;-82
2021/01/10 12:35:02;;;;;;;;;;;6.90;86.80;;;;;;6173930;22;19912;-82
2021/01/10 13:29:15;;;;;;;;;;;5.60;91.40;;;;;;6099241;22;19912;-81
2021/01/10 13:31:42;;;;;;;;;;;5.60;91.80;;;;;;6150541;22;19948;-83
2021/01/10 13:36:43;;;;;;;;;;;5.70;92.00;;;;;;6153114;22;19905;-81
2021/01/10 13:39:09;;;;;;;;;;;5.80;91.60;;;;;;6154646;22;19924;-81
2021/01/10 13:41:36;;;;;;;;;;;5.90;91.40;;;;;;6185861;22;19924;-82
2021/01/10 13:44:02;;;;;;;;;;;5.90;91.40;;;;;;6137082;22;19903;-80
2021/01/10 13:49:00;;;;;;;;;;;5.90;91.10;;;;;;6130995;23;19905;-81
2021/01/10 13:56:39;;;;;;;;;;;5.90;91.10;;;;;;6276543;22;19910;-82
2021/01/10 16:42:12;;;;;;;;;;;5.20;94.20;;;;;;6142733;23;19946;-84
2021/01/10 16:52:14;;;;;;;;;;;5.30;94.10;;;;;;6126699;23;19929;-81
2021/01/10 16:54:39;;;;;;;;;;;5.20;94.20;;;;;;6121238;23;19948;-80
2021/01/10 16:57:11;;;;;;;;;;;5.20;94.20;;;;;;6147468;23;19905;-81
2021/01/10 16:59:37;;;;;;;;;;;5.20;94.50;;;;;;6123258;23;19909;-81
2021/01/10 17:07:15;;;;;;;;;;;5.30;94.30;;;;;;6116702;23;19928;-80
2021/01/10 17:12:16;;;;;;;;;;;5.20;94.60;;;;;;6148713;23;19911;-82
2021/01/10 17:25:08;;;;;;;;;;;5.20;94.90;;;;;;6123851;23;20298;-84
2021/01/10 17:32:44;;;;;;;;;;;5.20;95.00;;;;;;6125241;23;19905;-84
2021/01/10 17:42:56;;;;;;;;;;;5.20;95.40;;;;;;6098610;23;20306;-88
2021/01/10 17:45:22;;;;;;;;;;;5.30;95.10;;;;;;6124343;23;19909;-89
2021/01/10 17:47:47;;;;;;;;;;;5.30;94.90;;;;;;6124239;23;19908;-88
2021/01/10 17:50:13;;;;;;;;;;;5.20;94.90;;;;;;6123852;23;19905;-89
2021/01/10 17:52:40;;;;;;;;;;;5.30;95.10;;;;;;6126869;23;19935;-87
2021/01/10 17:55:06;;;;;;;;;;;5.20;95.20;;;;;;6132732;23;19911;-95
2021/01/10 17:57:32;;;;;;;;;;;5.20;95.10;;;;;;6136007;23;19921;-94
2021/01/10 17:59:58;;;;;;;;;;;5.30;95.10;;;;;;6133350;23;19972;-92
2021/01/10 18:02:25;;;;;;;;;;;5.20;95.10;;;;;;6111502;23;19912;-92
2021/01/10 18:04:51;;;;;;;;;;;5.10;95.20;;;;;;6130653;23;20335;-86
2021/01/10 18:07:16;;;;;;;;;;;5.10;95.40;;;;;;6120557;23;19917;-83
2021/01/10 18:09:42;;;;;;;;;;;5.10;95.30;;;;;;6120320;23;19909;-82
2021/01/10 18:12:07;;;;;;;;;;;5.10;95.50;;;;;;6119836;23;19905;-81
2021/01/10 18:14:33;;;;;;;;;;;5.10;95.50;;;;;;6119722;23;19968;-84
2021/01/10 18:16:58;;;;;;;;;;;5.10;95.50;;;;;;6118727;23;19905;-85
2021/01/10 18:19:25;;;;;;;;;;;5.10;95.50;;;;;;6120736;23;20004;-85
2021/01/10 18:21:51;;;;;;;;;;;5.10;95.50;;;;;;6120743;23;20678;-81
2021/01/10 18:24:19;;;;;;;;;;;5.10;95.60;;;;;;6120288;23;19956;-83
2021/01/10 18:26:50;;;;;;;;;;;5.00;95.70;;;;;;6119934;23;19913;-87
2021/01/10 18:29:16;;;;;;;;;;;5.10;95.50;;;;;;6126392;23;19928;-85
2021/01/10 18:31:42;;;;;;;;;;;5.00;95.30;;;;;;6122239;23;19897;-93
2021/01/10 18:34:09;;;;;;;;;;;5.00;95.40;;;;;;6148470;23;19897;-94
2021/01/10 18:36:34;;;;;;;;;;;5.00;95.50;;;;;;6145993;23;19940;-92
2021/01/10 18:39:00;;;;;;;;;;;5.00;95.60;;;;;;6143487;23;19909;-89
2021/01/10 18:41:28;;;;;;;;;;;5.10;95.80;;;;;;6138717;23;19905;-90
2021/01/10 18:43:54;;;;;;;;;;;5.10;95.90;;;;;;6132656;23;19920;-91
2021/01/10 18:46:27;;;;;;;;;;;5.20;96.10;;;;;;6130675;23;19913;-92
2021/01/10 18:48:55;;;;;;;;;;;5.10;95.80;;;;;;6108793;23;19915;-91
2021/01/10 18:51:31;;;;;;;;;;;5.10;95.70;;;;;;6110071;23;19953;-91
2021/01/10 18:53:56;;;;;;;;;;;5.10;95.90;;;;;;6116012;23;19906;-91
2021/01/10 18:56:22;;;;;;;;;;;5.10;96.20;;;;;;6101644;23;19946;-93
2021/01/10 18:58:47;;;;;;;;;;;5.10;95.90;;;;;;6127689;23;19998;-89
2021/01/10 19:01:18;;;;;;;;;;;5.10;96.00;;;;;;6097180;23;19905;-91
2021/01/10 19:03:44;;;;;;;;;;;5.00;96.00;;;;;;6099481;23;19905;-92
2021/01/10 19:06:09;;;;;;;;;;;5.00;96.20;;;;;;6105913;23;19920;-92
2021/01/10 19:08:36;;;;;;;;;;;4.90;96.30;;;;;;6115216;23;19905;-93
2021/01/10 19:11:02;;;;;;;;;;;4.90;96.00;;;;;;6077223;23;19955;-90
2021/01/10 19:13:28;;;;;;;;;;;4.80;96.20;;;;;;6099442;23;20311;-93
2021/01/10 19:16:00;;;;;;;;;;;4.80;96.60;;;;;;6100663;23;19966;-95
2021/01/10 19:18:26;;;;;;;;;;;4.80;96.70;;;;;;6113326;23;19897;-88
2021/01/10 19:20:51;;;;;;;;;;;4.80;96.80;;;;;;6123682;23;19897;-89
2021/01/10 19:23:17;;;;;;;;;;;4.80;96.70;;;;;;6113551;23;20341;-91
2021/01/10 19:25:42;;;;;;;;;;;4.90;96.90;;;;;;6106562;23;19963;-85
2021/01/10 19:28:08;;;;;;;;;;;5.00;96.70;;;;;;6093537;23;19909;-91
2021/01/10 19:30:34;;;;;;;;;;;5.10;96.60;;;;;;6093458;23;20342;-87
2021/01/10 19:32:59;;;;;;;;;;;5.10;96.60;;;;;;6119699;23;20315;-87
2021/01/10 19:35:24;;;;;;;;;;;5.20;96.50;;;;;;6120296;23;20311;-87
2021/01/10 19:37:50;;;;;;;;;;;5.20;96.30;;;;;;6119738;23;19909;-84
2021/01/10 19:40:16;;;;;;;;;;;5.30;96.20;;;;;;6119437;23;20236;-86
2021/01/10 19:42:41;;;;;;;;;;;5.30;95.90;;;;;;6119788;23;19916;-86
2021/01/10 19:45:07;;;;;;;;;;;5.40;95.70;;;;;;6093673;23;19920;-87
2021/01/10 19:47:33;;;;;;;;;;;5.50;95.40;;;;;;6122312;23;19956;-89
2021/01/10 19:49:59;;;;;;;;;;;5.50;95.30;;;;;;6095837;23;19905;-89
2021/01/10 19:52:24;;;;;;;;;;;5.50;95.40;;;;;;6102200;22;19896;-88
2021/01/10 19:54:50;;;;;;;;;;;5.50;95.20;;;;;;6121678;23;19916;-88
2021/01/10 19:57:16;;;;;;;;;;;5.50;95.20;;;;;;6094539;23;19951;-84
2021/01/10 19:59:42;;;;;;;;;;;5.60;95.20;;;;;;6093232;23;20282;-85
2021/01/10 20:02:07;;;;;;;;;;;5.70;95.10;;;;;;6094773;23;19970;-87
2021/01/10 20:04:33;;;;;;;;;;;5.60;95.00;;;;;;6120251;23;19909;-85
2021/01/10 20:06:58;;;;;;;;;;;5.60;95.10;;;;;;6095356;23;19913;-85
2021/01/10 20:09:26;;;;;;;;;;;5.60;95.20;;;;;;6123658;23;19991;-87
2021/01/10 20:11:51;;;;;;;;;;;5.60;95.00;;;;;;6094487;23;19987;-84
2021/01/10 20:14:17;;;;;;;;;;;5.70;94.90;;;;;;6095630;23;19955;-84
2021/01/10 20:16:42;;;;;;;;;;;5.70;95.00;;;;;;6094991;23;19984;-85
2021/01/10 20:21:57;;;;;;;;;;;5.70;94.70;;;;;;6120483;23;20246;-87
2021/01/10 20:24:23;;;;;;;;;;;5.70;94.70;;;;;;6121723;23;19909;-86
2021/01/10 20:26:48;;;;;;;;;;;5.70;94.80;;;;;;6094190;23;20315;-87
2021/01/10 20:29:14;;;;;;;;;;;5.70;94.70;;;;;;6094120;23;19912;-86
2021/01/10 20:31:41;;;;;;;;;;;5.70;94.80;;;;;;6094608;23;19905;-86
2021/01/10 20:34:07;;;;;;;;;;;5.60;94.90;;;;;;6094314;23;19986;-85
2021/01/10 20:36:32;;;;;;;;;;;5.70;94.90;;;;;;6100477;23;19905;-89
2021/01/10 20:38:58;;;;;;;;;;;5.80;94.90;;;;;;6106730;23;20231;-89
2021/01/10 20:41:26;;;;;;;;;;;5.80;94.80;;;;;;6104926;23;19912;-89
2021/01/10 20:43:51;;;;;;;;;;;5.90;94.60;;;;;;6098184;23;19970;-90
2021/01/10 20:46:24;;;;;;;;;;;5.90;94.60;;;;;;6097678;23;19953;-89
2021/01/10 20:48:49;;;;;;;;;;;5.90;94.70;;;;;;6096432;23;19909;-88
2021/01/10 20:51:15;;;;;;;;;;;5.80;94.70;;;;;;6096607;23;19909;-87
2021/01/10 20:53:41;;;;;;;;;;;5.80;94.80;;;;;;6099909;23;19935;-94
2021/01/10 20:56:07;;;;;;;;;;;5.80;94.80;;;;;;6103660;23;19912;-89
2021/01/10 20:58:32;;;;;;;;;;;5.80;94.90;;;;;;6122520;22;19916;-89
2021/01/10 21:00:58;;;;;;;;;;;5.90;94.70;;;;;;6120971;22;19909;-90
2021/01/10 21:03:23;;;;;;;;;;;5.90;94.50;;;;;;6119480;22;19917;-90
2021/01/10 21:05:49;;;;;;;;;;;5.90;94.70;;;;;;6106139;23;19967;-92
2021/01/10 21:08:15;;;;;;;;;;;6.00;94.60;;;;;;6100919;23;20390;-93
2021/01/10 21:10:44;;;;;;;;;;;6.00;94.40;;;;;;6099911;23;19989;-91
2021/01/10 21:13:10;;;;;;;;;;;6.00;94.50;;;;;;6075156;23;19909;-79
2021/01/10 21:22:52;;;;;;;10.82;5.63;;;17.60;64.30;;;;;;5083217;28;20388;-69
2021/01/10 21:25:18;;;;;;;10.05;5.90;;;19.00;68.30;;;;;;5049548;28;20486;-57
2021/01/10 21:27:44;;;;;;;;;;;18.90;62.70;;;;;;5053720;28;20104;-90
2021/01/10 21:30:11;;;;;;;10.75;6.85;;;17.60;49.40;;;;;;5063104;28;20012;-88
2021/01/10 21:32:36;;;;;;;12.75;7.80;;;14.30;58.50;;;;;;5043678;28;20112;-88
2021/01/10 21:35:03;;;;;;;;;;;11.80;67.70;;;;;;5074753;28;20060;-92
2021/01/10 21:37:28;;;;;;;11.93;7.53;;;10.30;73.70;;;;;;5056626;28;19912;-90
2021/01/10 21:39:54;;;;;;;;;;;9.30;79.20;;;;;;5056386;28;20017;-91
2021/01/10 21:42:19;;;;;;;14.77;7.60;;;8.60;81.60;;;;;;5054152;28;20054;-94
2021/01/10 21:44:45;;;;;;;15.88;7.93;;;8.00;85.00;;;;;;5050772;28;20044;-93
2021/01/10 21:47:11;;;;;;;13.13;7.47;;;7.70;87.20;;;;;;5046889;28;20489;-92
2021/01/10 21:49:37;;;;;;;;;;;7.40;88.50;;;;;;5056083;28;20021;-90
2021/01/10 21:52:02;;;;;;;14.85;7.55;;;7.10;90.40;;;;;;5073493;28;20095;-94
2021/01/10 21:54:28;;;;;;;11.88;6.60;;;6.90;90.80;;;;;;5073038;28;20077;-94
2021/01/10 21:56:54;;;;;;;15.32;7.60;;;6.70;91.50;;;;;;5072146;28;20016;-93
2021/01/10 21:59:22;;;;;;;16.55;8.05;;;6.60;92.30;;;;;;5060749;28;20048;-95
2021/01/10 22:01:48;;;;;;;16.90;8.07;;;6.60;92.10;;;;;;5054303;28;20048;-95
2021/01/10 22:04:14;;;;;;;14.82;9.10;;;6.50;92.20;;;;;;5060510;28;20017;-95
2021/01/10 22:06:46;;;;;;;21.98;9.48;;;6.50;92.60;;;;;;5058283;28;20029;-94
2021/01/10 22:09:11;;;;;;;20.85;9.88;;;6.40;93.00;;;;;;5050102;28;20017;-94
2021/01/10 22:11:37;;;;;;;18.60;9.40;;;6.30;93.30;;;;;;5053547;28;20318;-95
2021/01/10 22:14:03;;;;;;;20.25;10.30;;;6.30;93.50;;;;;;5056817;28;20024;-95
2021/01/10 22:16:29;;;;;;;16.65;9.57;;;6.20;93.80;;;;;;5057661;28;20514;-95
2021/01/10 22:18:55;;;;;;;16.45;10.20;;;6.20;93.90;;;;;;5074770;28;20040;-95
2021/01/10 22:21:21;;;;;;;20.27;10.27;;;6.20;94.30;;;;;;5057991;28;20033;-94
2021/01/10 22:23:52;;;;;;;26.02;11.32;;;6.10;94.30;;;;;;5060575;28;20045;-96
2021/01/10 22:26:31;;;;;;;17.60;11.68;;;6.10;94.20;;;;;;5051816;28;20078;-94
2021/01/10 22:28:57;;;;;;;18.40;9.60;;;6.20;94.30;;;;;;5070790;28;20060;-93
2021/01/10 22:31:24;;;;;;;17.00;9.60;;;6.10;94.20;;;;;;5055859;28;20016;-92
2021/01/10 22:33:52;;;;;;;21.50;10.50;;;6.20;94.30;;;;;;5032341;28;20032;-86
2021/01/10 22:36:19;;;;;;;25.00;11.40;;;6.10;94.40;;;;;;5034828;28;20056;-87
2021/01/10 22:38:45;;;;;;;21.38;10.50;;;6.10;94.50;;;;;;5031684;28;20087;-87
2021/01/10 22:41:11;;;;;;;19.10;10.40;;;6.10;94.30;;;;;;5027317;28;20444;-87
2021/01/10 22:43:40;;;;;;;20.20;9.98;;;6.20;94.30;;;;;;5038834;28;20113;-87
2021/01/10 22:46:06;;;;;;;16.38;10.20;;;6.30;94.10;;;;;;5058844;28;20025;-87
2021/01/10 22:48:33;;;;;;;17.90;10.05;;;6.30;93.90;;;;;;5045012;28;20028;-87
2021/01/10 22:50:59;;;;;;;16.67;9.48;;;6.20;94.10;;;;;;5029882;28;20475;-87
2021/01/10 22:53:25;;;;;;;20.63;10.27;;;6.20;94.20;;;;;;5021624;28;20024;-87
2021/01/10 22:55:50;;;;;;;14.95;8.20;;;6.20;94.30;;;;;;5027393;28;20033;-86
2021/01/10 22:58:16;;;;;;;15.25;8.75;;;6.20;94.40;;;;;;5034244;28;20072;-86
2021/01/10 23:00:41;;;;;;;14.52;7.85;;;6.20;94.30;;;;;;5049336;28;20572;-86
2021/01/10 23:03:07;;;;;;;16.42;7.65;;;6.20;94.10;;;;;;5045974;28;20064;-85
2021/01/10 23:05:33;;;;;;;12.10;6.95;;;6.20;94.10;;;;;;5027729;28;20026;-85
2021/01/10 23:07:58;;;;;;;13.15;7.13;;;6.30;93.90;;;;;;5022118;28;20509;-85
2021/01/10 23:10:24;;;;;;;17.88;7.45;;;6.30;94.00;;;;;;5051542;28;20037;-84
2021/01/10 23:12:50;;;;;;;10.57;5.88;;;6.20;93.70;;;;;;5027029;28;20040;-85
2021/01/10 23:15:15;;;;;;;14.00;7.07;;;6.30;93.80;;;;;;5028072;28;20120;-87
2021/01/10 23:17:41;;;;;;;13.95;7.65;;;6.30;93.80;;;;;;5034414;28;20121;-86
2021/01/10 23:20:08;;;;;;;13.48;6.65;;;6.30;93.90;;;;;;5027075;28;20463;-86
2021/01/10 23:22:34;;;;;;;15.23;7.63;;;6.30;93.70;;;;;;5052509;28;20033;-86
2021/01/10 23:25:00;;;;;;;15.85;7.90;;;6.30;93.80;;;;;;5032701;28;20021;-86
2021/01/10 23:27:26;;;;;;;11.23;7.07;;;6.30;93.70;;;;;;5022076;28;20025;-86
2021/01/10 23:29:51;;;;;;;13.25;7.80;;;6.30;93.60;;;;;;5034702;28;20033;-85
2021/01/10 23:32:17;;;;;;;18.15;7.10;;;6.40;93.40;;;;;;5051164;28;20029;-87
2021/01/10 23:34:42;;;;;;;20.27;7.90;;;6.40;93.70;;;;;;5042959;28;20022;-86
2021/01/10 23:37:10;;;;;;;17.65;7.38;;;6.30;93.70;;;;;;5030369;28;20065;-87
2021/01/10 23:39:36;;;;;;;13.05;6.90;;;6.40;93.70;;;;;;5035113;28;20047;-87
2021/01/10 23:42:02;;;;;;;11.30;6.03;;;6.40;93.70;;;;;;5021080;28;20037;-87
2021/01/10 23:44:27;;;;;;;;;;;6.40;94.10;;;;;;5014078;28;20112;-88
2021/01/10 23:46:53;;;;;;;10.50;6.03;;;6.30;94.30;;;;;;5030195;28;19992;-87
2021/01/10 23:49:19;;;;;;;10.35;6.57;;;6.30;94.80;;;;;;5032133;28;20043;-87
2021/01/10 23:51:44;;;;;;;15.20;6.63;;;6.30;95.20;;;;;;5034903;28;20488;-86
2021/01/10 23:54:13;;;;;;;12.45;7.25;;;6.30;95.40;;;;;;5034870;28;20032;-88
2021/01/10 23:56:42;;;;;;;15.55;7.13;;;6.20;95.50;;;;;;5034977;28;20040;-87
2021/01/10 23:59:09;;;;;;;17.25;7.97;;;6.20;95.90;;;;;;5025602;28;20028;-88
